sensor_id;sensor_type;location;lat;lon;timestamp;P1;durP1;ratioP1;P2;durP2;ratioP2
15673;SDS011;7937;48.090;16.212;2024-03-08T00:00:36;62.47;;;35.67;;
15673;SDS011;7937;48.090;16.212;2024-03-08T00:03:39;58.47;;;33.27;;
15673;SDS011;7937;48.090;16.212;2024-03-08T00:06:42;65.50;;;35.73;;
15673;SDS011;7937;48.090;16.212;2024-03-08T00:09:45;60.13;;;33.63;;
15673;SDS011;7937;48.090;16.212;2024-03-08T00:12:47;61.87;;;35.47;;
15673;SDS011;7937;48.090;16.212;2024-03-08T00:15:49;60.33;;;34.90;;
15673;SDS011;7937;48.090;16.212;2024-03-08T00:18:52;61.00;;;32.63;;
15673;SDS011;7937;48.090;16.212;2024-03-08T00:21:54;57.73;;;34.50;;
15673;SDS011;7937;48.090;16.212;2024-03-08T00:24:57;59.83;;;34.60;;
15673;SDS011;7937;48.090;16.212;2024-03-08T00:27:59;58.93;;;33.57;;
15673;SDS011;7937;48.090;16.212;2024-03-08T00:31:01;61.17;;;33.27;;
15673;SDS011;7937;48.090;16.212;2024-03-08T00:34:03;60.33;;;35.70;;
15673;SDS011;7937;48.090;16.212;2024-03-08T00:37:05;65.00;;;35.03;;
15673;SDS011;7937;48.090;16.212;2024-03-08T00:40:08;62.80;;;33.17;;
15673;SDS011;7937;48.090;16.212;2024-03-08T00:43:13;54.27;;;32.17;;
15673;SDS011;7937;48.090;16.212;2024-03-08T00:46:15;61.37;;;33.37;;
15673;SDS011;7937;48.090;16.212;2024-03-08T00:49:17;54.20;;;31.93;;
15673;SDS011;7937;48.090;16.212;2024-03-08T00:52:20;53.60;;;31.60;;
15673;SDS011;7937;48.090;16.212;2024-03-08T00:55:22;53.50;;;29.77;;
15673;SDS011;7937;48.090;16.212;2024-03-08T00:58:24;64.17;;;35.93;;
15673;SDS011;7937;48.090;16.212;2024-03-08T01:01:26;56.90;;;32.70;;
15673;SDS011;7937;48.090;16.212;2024-03-08T01:04:28;57.73;;;31.77;;
15673;SDS011;7937;48.090;16.212;2024-03-08T01:07:30;53.70;;;30.30;;
15673;SDS011;7937;48.090;16.212;2024-03-08T01:10:33;54.47;;;32.20;;
15673;SDS011;7937;48.090;16.212;2024-03-08T01:13:35;57.03;;;31.60;;
15673;SDS011;7937;48.090;16.212;2024-03-08T01:16:37;53.93;;;31.50;;
15673;SDS011;7937;48.090;16.212;2024-03-08T01:19:40;57.60;;;33.07;;
15673;SDS011;7937;48.090;16.212;2024-03-08T01:22:42;59.23;;;32.37;;
15673;SDS011;7937;48.090;16.212;2024-03-08T01:25:44;57.53;;;33.47;;
15673;SDS011;7937;48.090;16.212;2024-03-08T01:28:46;63.27;;;34.87;;
15673;SDS011;7937;48.090;16.212;2024-03-08T01:31:48;60.37;;;33.00;;
15673;SDS011;7937;48.090;16.212;2024-03-08T01:34:50;61.07;;;34.07;;
15673;SDS011;7937;48.090;16.212;2024-03-08T01:37:52;58.40;;;33.80;;
15673;SDS011;7937;48.090;16.212;2024-03-08T01:40:54;58.93;;;34.37;;
15673;SDS011;7937;48.090;16.212;2024-03-08T01:43:59;59.90;;;33.20;;
15673;SDS011;7937;48.090;16.212;2024-03-08T01:47:01;56.47;;;33.13;;
15673;SDS011;7937;48.090;16.212;2024-03-08T01:50:04;58.57;;;33.30;;
15673;SDS011;7937;48.090;16.212;2024-03-08T01:53:08;56.60;;;34.33;;
15673;SDS011;7937;48.090;16.212;2024-03-08T01:56:14;62.80;;;34.77;;
15673;SDS011;7937;48.090;16.212;2024-03-08T01:59:17;56.13;;;33.30;;
15673;SDS011;7937;48.090;16.212;2024-03-08T02:02:20;56.07;;;32.33;;
15673;SDS011;7937;48.090;16.212;2024-03-08T02:05:23;56.87;;;33.60;;
15673;SDS011;7937;48.090;16.212;2024-03-08T02:08:25;56.53;;;32.07;;
15673;SDS011;7937;48.090;16.212;2024-03-08T02:11:27;61.87;;;32.80;;
15673;SDS011;7937;48.090;16.212;2024-03-08T02:17:52;55.23;;;31.77;;
15673;SDS011;7937;48.090;16.212;2024-03-08T02:20:56;54.60;;;32.27;;
15673;SDS011;7937;48.090;16.212;2024-03-08T02:24:00;58.37;;;33.63;;
15673;SDS011;7937;48.090;16.212;2024-03-08T02:27:02;59.77;;;33.90;;
15673;SDS011;7937;48.090;16.212;2024-03-08T02:30:06;60.13;;;32.27;;
15673;SDS011;7937;48.090;16.212;2024-03-08T02:33:08;62.97;;;35.67;;
15673;SDS011;7937;48.090;16.212;2024-03-08T02:36:11;63.10;;;34.27;;
15673;SDS011;7937;48.090;16.212;2024-03-08T02:39:14;57.90;;;33.83;;
15673;SDS011;7937;48.090;16.212;2024-03-08T02:42:16;61.03;;;33.47;;
15673;SDS011;7937;48.090;16.212;2024-03-08T02:45:19;63.87;;;35.13;;
15673;SDS011;7937;48.090;16.212;2024-03-08T02:48:22;60.63;;;33.67;;
15673;SDS011;7937;48.090;16.212;2024-03-08T02:51:25;69.23;;;36.80;;
15673;SDS011;7937;48.090;16.212;2024-03-08T02:54:28;60.00;;;33.87;;
15673;SDS011;7937;48.090;16.212;2024-03-08T02:57:30;54.93;;;31.13;;
15673;SDS011;7937;48.090;16.212;2024-03-08T03:00:32;58.10;;;33.93;;
15673;SDS011;7937;48.090;16.212;2024-03-08T03:03:34;59.67;;;32.50;;
15673;SDS011;7937;48.090;16.212;2024-03-08T03:06:36;57.30;;;33.07;;
15673;SDS011;7937;48.090;16.212;2024-03-08T03:09:38;64.00;;;34.70;;
15673;SDS011;7937;48.090;16.212;2024-03-08T03:12:41;60.30;;;33.50;;
15673;SDS011;7937;48.090;16.212;2024-03-08T03:15:43;59.23;;;32.27;;
15673;SDS011;7937;48.090;16.212;2024-03-08T03:18:45;61.77;;;34.60;;
15673;SDS011;7937;48.090;16.212;2024-03-08T03:21:48;60.47;;;34.47;;
15673;SDS011;7937;48.090;16.212;2024-03-08T03:24:50;58.27;;;34.10;;
15673;SDS011;7937;48.090;16.212;2024-03-08T03:27:53;56.67;;;32.87;;
15673;SDS011;7937;48.090;16.212;2024-03-08T03:30:58;67.13;;;36.53;;
15673;SDS011;7937;48.090;16.212;2024-03-08T03:34:01;64.43;;;34.23;;
15673;SDS011;7937;48.090;16.212;2024-03-08T03:37:05;61.27;;;33.13;;
15673;SDS011;7937;48.090;16.212;2024-03-08T03:40:14;66.43;;;35.03;;
15673;SDS011;7937;48.090;16.212;2024-03-08T03:43:16;63.97;;;34.17;;
15673;SDS011;7937;48.090;16.212;2024-03-08T03:46:18;64.60;;;34.50;;
15673;SDS011;7937;48.090;16.212;2024-03-08T03:49:20;59.27;;;34.93;;
15673;SDS011;7937;48.090;16.212;2024-03-08T03:52:23;59.83;;;33.53;;
15673;SDS011;7937;48.090;16.212;2024-03-08T03:55:25;56.43;;;32.37;;
15673;SDS011;7937;48.090;16.212;2024-03-08T03:58:28;64.70;;;36.03;;
15673;SDS011;7937;48.090;16.212;2024-03-08T04:01:30;64.40;;;36.17;;
15673;SDS011;7937;48.090;16.212;2024-03-08T04:04:34;63.97;;;36.80;;
15673;SDS011;7937;48.090;16.212;2024-03-08T04:07:37;62.47;;;34.20;;
15673;SDS011;7937;48.090;16.212;2024-03-08T04:10:40;63.10;;;35.63;;
15673;SDS011;7937;48.090;16.212;2024-03-08T04:13:45;63.93;;;34.27;;
15673;SDS011;7937;48.090;16.212;2024-03-08T04:16:47;62.63;;;35.50;;
15673;SDS011;7937;48.090;16.212;2024-03-08T04:19:50;67.53;;;35.97;;
15673;SDS011;7937;48.090;16.212;2024-03-08T04:22:53;69.83;;;37.07;;
15673;SDS011;7937;48.090;16.212;2024-03-08T04:25:55;62.03;;;34.77;;
15673;SDS011;7937;48.090;16.212;2024-03-08T04:28:57;59.77;;;34.13;;
15673;SDS011;7937;48.090;16.212;2024-03-08T04:31:59;62.00;;;34.77;;
15673;SDS011;7937;48.090;16.212;2024-03-08T04:35:05;63.87;;;34.47;;
15673;SDS011;7937;48.090;16.212;2024-03-08T04:38:07;64.37;;;35.27;;
15673;SDS011;7937;48.090;16.212;2024-03-08T04:41:09;67.73;;;35.40;;
15673;SDS011;7937;48.090;16.212;2024-03-08T04:44:12;69.90;;;36.30;;
15673;SDS011;7937;48.090;16.212;2024-03-08T04:47:14;63.97;;;35.10;;
15673;SDS011;7937;48.090;16.212;2024-03-08T04:50:18;66.43;;;37.17;;
15673;SDS011;7937;48.090;16.212;2024-03-08T04:53:20;61.57;;;34.83;;
15673;SDS011;7937;48.090;16.212;2024-03-08T04:56:22;64.43;;;36.37;;
15673;SDS011;7937;48.090;16.212;2024-03-08T04:59:27;70.17;;;38.17;;
15673;SDS011;7937;48.090;16.212;2024-03-08T05:02:29;71.37;;;36.53;;
15673;SDS011;7937;48.090;16.212;2024-03-08T05:05:32;67.60;;;34.60;;
15673;SDS011;7937;48.090;16.212;2024-03-08T05:08:35;67.50;;;37.10;;
15673;SDS011;7937;48.090;16.212;2024-03-08T05:11:37;66.87;;;36.17;;
15673;SDS011;7937;48.090;16.212;2024-03-08T05:14:39;69.70;;;38.00;;
15673;SDS011;7937;48.090;16.212;2024-03-08T05:17:42;63.37;;;34.87;;
15673;SDS011;7937;48.090;16.212;2024-03-08T05:20:44;76.97;;;39.20;;
15673;SDS011;7937;48.090;16.212;2024-03-08T05:23:47;74.27;;;38.80;;
15673;SDS011;7937;48.090;16.212;2024-03-08T05:26:49;68.20;;;37.97;;
15673;SDS011;7937;48.090;16.212;2024-03-08T05:29:51;68.23;;;36.27;;
15673;SDS011;7937;48.090;16.212;2024-03-08T05:32:54;66.40;;;36.83;;
15673;SDS011;7937;48.090;16.212;2024-03-08T05:35:56;67.23;;;36.73;;
15673;SDS011;7937;48.090;16.212;2024-03-08T05:38:58;67.03;;;34.83;;
15673;SDS011;7937;48.090;16.212;2024-03-08T05:42:01;69.33;;;37.93;;
15673;SDS011;7937;48.090;16.212;2024-03-08T05:45:06;71.60;;;36.70;;
15673;SDS011;7937;48.090;16.212;2024-03-08T05:48:08;66.60;;;36.30;;
15673;SDS011;7937;48.090;16.212;2024-03-08T05:51:11;63.17;;;36.37;;
15673;SDS011;7937;48.090;16.212;2024-03-08T05:54:14;63.20;;;35.60;;
15673;SDS011;7937;48.090;16.212;2024-03-08T05:57:20;64.27;;;36.33;;
15673;SDS011;7937;48.090;16.212;2024-03-08T06:00:25;76.03;;;38.10;;
15673;SDS011;7937;48.090;16.212;2024-03-08T06:03:28;74.63;;;39.90;;
15673;SDS011;7937;48.090;16.212;2024-03-08T06:06:30;74.83;;;38.50;;
15673;SDS011;7937;48.090;16.212;2024-03-08T06:09:32;72.43;;;38.57;;
15673;SDS011;7937;48.090;16.212;2024-03-08T06:12:34;81.80;;;40.40;;
15673;SDS011;7937;48.090;16.212;2024-03-08T06:15:41;70.90;;;37.13;;
15673;SDS011;7937;48.090;16.212;2024-03-08T06:18:44;70.07;;;38.97;;
15673;SDS011;7937;48.090;16.212;2024-03-08T06:21:46;76.37;;;39.67;;
15673;SDS011;7937;48.090;16.212;2024-03-08T06:24:48;69.53;;;38.93;;
15673;SDS011;7937;48.090;16.212;2024-03-08T06:27:50;70.10;;;37.77;;
15673;SDS011;7937;48.090;16.212;2024-03-08T06:30:53;69.90;;;37.23;;
15673;SDS011;7937;48.090;16.212;2024-03-08T06:33:58;70.73;;;39.63;;
15673;SDS011;7937;48.090;16.212;2024-03-08T06:37:01;74.80;;;38.50;;
15673;SDS011;7937;48.090;16.212;2024-03-08T06:40:05;77.57;;;39.87;;
15673;SDS011;7937;48.090;16.212;2024-03-08T06:43:10;74.03;;;39.60;;
15673;SDS011;7937;48.090;16.212;2024-03-08T06:46:16;79.90;;;40.23;;
15673;SDS011;7937;48.090;16.212;2024-03-08T06:49:18;79.87;;;38.93;;
15673;SDS011;7937;48.090;16.212;2024-03-08T06:52:21;86.00;;;43.17;;
15673;SDS011;7937;48.090;16.212;2024-03-08T06:55:24;84.80;;;41.50;;
15673;SDS011;7937;48.090;16.212;2024-03-08T06:58:26;92.20;;;42.50;;
15673;SDS011;7937;48.090;16.212;2024-03-08T07:01:29;86.27;;;42.40;;
15673;SDS011;7937;48.090;16.212;2024-03-08T07:04:33;95.63;;;43.93;;
15673;SDS011;7937;48.090;16.212;2024-03-08T07:07:39;95.10;;;46.20;;
15673;SDS011;7937;48.090;16.212;2024-03-08T07:10:43;94.50;;;45.47;;
15673;SDS011;7937;48.090;16.212;2024-03-08T07:13:46;91.33;;;43.43;;
15673;SDS011;7937;48.090;16.212;2024-03-08T07:16:49;86.43;;;42.53;;
15673;SDS011;7937;48.090;16.212;2024-03-08T07:19:52;94.90;;;44.57;;
15673;SDS011;7937;48.090;16.212;2024-03-08T07:22:59;93.87;;;43.57;;
15673;SDS011;7937;48.090;16.212;2024-03-08T07:26:01;89.37;;;42.93;;
15673;SDS011;7937;48.090;16.212;2024-03-08T07:29:03;86.70;;;41.70;;
15673;SDS011;7937;48.090;16.212;2024-03-08T07:32:05;93.47;;;44.10;;
15673;SDS011;7937;48.090;16.212;2024-03-08T07:35:22;89.33;;;43.97;;
15673;SDS011;7937;48.090;16.212;2024-03-08T07:38:25;90.83;;;44.07;;
15673;SDS011;7937;48.090;16.212;2024-03-08T07:41:27;98.53;;;45.37;;
15673;SDS011;7937;48.090;16.212;2024-03-08T07:44:31;101.23;;;45.63;;
15673;SDS011;7937;48.090;16.212;2024-03-08T07:47:34;101.40;;;44.90;;
15673;SDS011;7937;48.090;16.212;2024-03-08T07:50:38;92.03;;;42.63;;
15673;SDS011;7937;48.090;16.212;2024-03-08T07:53:42;88.77;;;43.40;;
15673;SDS011;7937;48.090;16.212;2024-03-08T07:56:45;91.40;;;42.03;;
15673;SDS011;7937;48.090;16.212;2024-03-08T07:59:47;90.43;;;42.17;;
15673;SDS011;7937;48.090;16.212;2024-03-08T08:02:50;87.70;;;41.30;;
15673;SDS011;7937;48.090;16.212;2024-03-08T08:05:52;95.90;;;43.47;;
15673;SDS011;7937;48.090;16.212;2024-03-08T08:08:57;85.77;;;41.37;;
15673;SDS011;7937;48.090;16.212;2024-03-08T08:12:00;78.93;;;38.60;;
15673;SDS011;7937;48.090;16.212;2024-03-08T08:15:05;86.33;;;40.57;;
15673;SDS011;7937;48.090;16.212;2024-03-08T08:18:07;85.40;;;40.17;;
15673;SDS011;7937;48.090;16.212;2024-03-08T08:21:11;88.73;;;40.70;;
15673;SDS011;7937;48.090;16.212;2024-03-08T08:24:14;84.00;;;40.03;;
15673;SDS011;7937;48.090;16.212;2024-03-08T08:27:16;88.23;;;41.33;;
15673;SDS011;7937;48.090;16.212;2024-03-08T08:30:18;86.20;;;40.63;;
15673;SDS011;7937;48.090;16.212;2024-03-08T08:33:21;83.00;;;42.20;;
15673;SDS011;7937;48.090;16.212;2024-03-08T08:36:23;79.83;;;39.73;;
15673;SDS011;7937;48.090;16.212;2024-03-08T08:39:25;75.10;;;39.43;;
15673;SDS011;7937;48.090;16.212;2024-03-08T08:42:27;81.23;;;37.83;;
15673;SDS011;7937;48.090;16.212;2024-03-08T08:45:30;71.87;;;35.33;;
15673;SDS011;7937;48.090;16.212;2024-03-08T08:48:33;70.73;;;34.00;;
15673;SDS011;7937;48.090;16.212;2024-03-08T08:51:35;57.27;;;31.63;;
15673;SDS011;7937;48.090;16.212;2024-03-08T08:54:37;60.83;;;31.77;;
15673;SDS011;7937;48.090;16.212;2024-03-08T08:57:42;58.13;;;30.43;;
15673;SDS011;7937;48.090;16.212;2024-03-08T09:00:46;58.70;;;30.33;;
15673;SDS011;7937;48.090;16.212;2024-03-08T09:03:48;56.23;;;30.90;;
15673;SDS011;7937;48.090;16.212;2024-03-08T09:06:51;63.40;;;32.60;;
15673;SDS011;7937;48.090;16.212;2024-03-08T09:09:54;60.70;;;31.33;;
15673;SDS011;7937;48.090;16.212;2024-03-08T09:13:00;60.33;;;30.73;;
15673;SDS011;7937;48.090;16.212;2024-03-08T09:16:06;63.63;;;31.80;;
15673;SDS011;7937;48.090;16.212;2024-03-08T09:19:08;64.33;;;33.97;;
15673;SDS011;7937;48.090;16.212;2024-03-08T09:22:13;69.57;;;32.37;;
15673;SDS011;7937;48.090;16.212;2024-03-08T09:25:15;60.93;;;31.93;;
15673;SDS011;7937;48.090;16.212;2024-03-08T09:28:18;60.80;;;31.93;;
15673;SDS011;7937;48.090;16.212;2024-03-08T09:31:21;61.63;;;32.80;;
15673;SDS011;7937;48.090;16.212;2024-03-08T09:34:24;55.23;;;29.77;;
15673;SDS011;7937;48.090;16.212;2024-03-08T09:37:37;47.70;;;27.43;;
15673;SDS011;7937;48.090;16.212;2024-03-08T09:40:43;51.97;;;29.40;;
15673;SDS011;7937;48.090;16.212;2024-03-08T09:43:46;56.97;;;30.30;;
15673;SDS011;7937;48.090;16.212;2024-03-08T09:46:48;58.83;;;33.10;;
15673;SDS011;7937;48.090;16.212;2024-03-08T09:49:55;68.43;;;35.30;;
15673;SDS011;7937;48.090;16.212;2024-03-08T09:52:57;67.30;;;33.93;;
15673;SDS011;7937;48.090;16.212;2024-03-08T09:56:00;62.63;;;32.40;;
15673;SDS011;7937;48.090;16.212;2024-03-08T09:59:05;62.47;;;32.97;;
15673;SDS011;7937;48.090;16.212;2024-03-08T10:02:14;62.70;;;32.40;;
15673;SDS011;7937;48.090;16.212;2024-03-08T10:05:18;60.60;;;32.73;;
15673;SDS011;7937;48.090;16.212;2024-03-08T10:08:20;62.03;;;32.23;;
15673;SDS011;7937;48.090;16.212;2024-03-08T10:11:22;58.97;;;30.27;;
15673;SDS011;7937;48.090;16.212;2024-03-08T10:14:26;56.20;;;30.13;;
15673;SDS011;7937;48.090;16.212;2024-03-08T10:17:29;57.47;;;31.57;;
15673;SDS011;7937;48.090;16.212;2024-03-08T10:20:34;60.13;;;30.77;;
15673;SDS011;7937;48.090;16.212;2024-03-08T10:23:37;59.77;;;30.73;;
15673;SDS011;7937;48.090;16.212;2024-03-08T10:26:39;58.97;;;29.90;;
15673;SDS011;7937;48.090;16.212;2024-03-08T10:29:42;57.17;;;30.07;;
15673;SDS011;7937;48.090;16.212;2024-03-08T10:32:46;63.50;;;31.60;;
15673;SDS011;7937;48.090;16.212;2024-03-08T10:35:48;54.23;;;31.60;;
15673;SDS011;7937;48.090;16.212;2024-03-08T10:38:51;54.20;;;29.97;;
15673;SDS011;7937;48.090;16.212;2024-03-08T10:41:58;56.50;;;29.93;;
15673;SDS011;7937;48.090;16.212;2024-03-08T10:45:15;58.03;;;31.60;;
15673;SDS011;7937;48.090;16.212;2024-03-08T10:48:30;54.30;;;28.63;;
15673;SDS011;7937;48.090;16.212;2024-03-08T10:51:40;51.23;;;27.57;;
15673;SDS011;7937;48.090;16.212;2024-03-08T10:54:43;51.17;;;27.73;;
15673;SDS011;7937;48.090;16.212;2024-03-08T10:57:49;48.83;;;26.93;;
15673;SDS011;7937;48.090;16.212;2024-03-08T11:00:56;51.60;;;26.27;;
15673;SDS011;7937;48.090;16.212;2024-03-08T11:03:59;48.07;;;25.63;;
15673;SDS011;7937;48.090;16.212;2024-03-08T11:07:02;49.97;;;26.57;;
15673;SDS011;7937;48.090;16.212;2024-03-08T11:10:21;51.33;;;26.43;;
15673;SDS011;7937;48.090;16.212;2024-03-08T11:13:39;47.87;;;25.97;;
15673;SDS011;7937;48.090;16.212;2024-03-08T11:16:47;41.93;;;23.43;;
15673;SDS011;7937;48.090;16.212;2024-03-08T11:19:49;38.23;;;21.73;;
15673;SDS011;7937;48.090;16.212;2024-03-08T11:22:55;33.87;;;20.97;;
15673;SDS011;7937;48.090;16.212;2024-03-08T11:26:03;36.10;;;21.10;;
15673;SDS011;7937;48.090;16.212;2024-03-08T11:32:30;33.13;;;20.43;;
15673;SDS011;7937;48.090;16.212;2024-03-08T11:35:34;31.73;;;19.67;;
15673;SDS011;7937;48.090;16.212;2024-03-08T11:38:43;31.93;;;19.30;;
15673;SDS011;7937;48.090;16.212;2024-03-08T11:41:46;32.63;;;18.60;;
15673;SDS011;7937;48.090;16.212;2024-03-08T11:44:50;27.07;;;18.00;;
15673;SDS011;7937;48.090;16.212;2024-03-08T11:47:55;33.33;;;19.00;;
15673;SDS011;7937;48.090;16.212;2024-03-08T11:51:00;28.73;;;17.23;;
15673;SDS011;7937;48.090;16.212;2024-03-08T11:54:03;27.07;;;17.20;;
15673;SDS011;7937;48.090;16.212;2024-03-08T11:57:07;27.87;;;16.83;;
15673;SDS011;7937;48.090;16.212;2024-03-08T12:00:15;24.63;;;15.67;;
15673;SDS011;7937;48.090;16.212;2024-03-08T12:03:26;26.63;;;16.37;;
15673;SDS011;7937;48.090;16.212;2024-03-08T12:06:36;26.43;;;16.50;;
15673;SDS011;7937;48.090;16.212;2024-03-08T12:09:42;25.17;;;16.17;;
15673;SDS011;7937;48.090;16.212;2024-03-08T12:12:51;24.83;;;15.13;;
15673;SDS011;7937;48.090;16.212;2024-03-08T12:16:02;24.83;;;16.13;;
15673;SDS011;7937;48.090;16.212;2024-03-08T12:19:06;27.37;;;16.73;;
15673;SDS011;7937;48.090;16.212;2024-03-08T12:22:15;23.03;;;15.67;;
15673;SDS011;7937;48.090;16.212;2024-03-08T12:25:17;24.83;;;16.33;;
15673;SDS011;7937;48.090;16.212;2024-03-08T12:28:19;23.67;;;16.13;;
15673;SDS011;7937;48.090;16.212;2024-03-08T12:31:24;22.57;;;15.47;;
15673;SDS011;7937;48.090;16.212;2024-03-08T12:34:27;22.50;;;15.60;;
15673;SDS011;7937;48.090;16.212;2024-03-08T12:37:31;24.97;;;15.27;;
15673;SDS011;7937;48.090;16.212;2024-03-08T12:40:33;21.93;;;15.50;;
15673;SDS011;7937;48.090;16.212;2024-03-08T12:43:36;20.10;;;14.67;;
15673;SDS011;7937;48.090;16.212;2024-03-08T12:46:38;22.00;;;14.90;;
15673;SDS011;7937;48.090;16.212;2024-03-08T12:49:42;23.43;;;15.57;;
15673;SDS011;7937;48.090;16.212;2024-03-08T12:52:44;23.27;;;15.63;;
15673;SDS011;7937;48.090;16.212;2024-03-08T12:55:46;22.07;;;15.83;;
15673;SDS011;7937;48.090;16.212;2024-03-08T12:58:48;23.90;;;15.40;;
15673;SDS011;7937;48.090;16.212;2024-03-08T13:01:50;21.33;;;14.07;;
15673;SDS011;7937;48.090;16.212;2024-03-08T13:04:55;21.20;;;14.67;;
15673;SDS011;7937;48.090;16.212;2024-03-08T13:07:59;22.47;;;14.90;;
15673;SDS011;7937;48.090;16.212;2024-03-08T13:11:01;19.93;;;14.30;;
15673;SDS011;7937;48.090;16.212;2024-03-08T13:14:05;19.30;;;13.70;;
15673;SDS011;7937;48.090;16.212;2024-03-08T13:17:07;18.77;;;13.73;;
15673;SDS011;7937;48.090;16.212;2024-03-08T13:20:12;19.53;;;13.33;;
15673;SDS011;7937;48.090;16.212;2024-03-08T13:23:31;18.70;;;12.63;;
15673;SDS011;7937;48.090;16.212;2024-03-08T13:26:33;20.97;;;14.20;;
15673;SDS011;7937;48.090;16.212;2024-03-08T13:29:35;17.50;;;12.67;;
15673;SDS011;7937;48.090;16.212;2024-03-08T13:32:40;16.93;;;13.33;;
15673;SDS011;7937;48.090;16.212;2024-03-08T13:35:45;15.23;;;11.93;;
15673;SDS011;7937;48.090;16.212;2024-03-08T13:38:52;18.17;;;13.07;;
15673;SDS011;7937;48.090;16.212;2024-03-08T13:41:55;18.33;;;13.37;;
15673;SDS011;7937;48.090;16.212;2024-03-08T13:44:57;19.00;;;13.43;;
15673;SDS011;7937;48.090;16.212;2024-03-08T13:47:59;19.93;;;13.40;;
15673;SDS011;7937;48.090;16.212;2024-03-08T13:51:01;19.00;;;13.33;;
15673;SDS011;7937;48.090;16.212;2024-03-08T13:54:04;19.33;;;14.10;;
15673;SDS011;7937;48.090;16.212;2024-03-08T13:57:08;20.43;;;13.33;;
15673;SDS011;7937;48.090;16.212;2024-03-08T14:00:11;18.93;;;13.83;;
15673;SDS011;7937;48.090;16.212;2024-03-08T14:03:14;20.27;;;13.47;;
15673;SDS011;7937;48.090;16.212;2024-03-08T14:06:16;20.70;;;13.77;;
15673;SDS011;7937;48.090;16.212;2024-03-08T14:09:23;19.40;;;13.33;;
15673;SDS011;7937;48.090;16.212;2024-03-08T14:12:26;18.43;;;13.17;;
15673;SDS011;7937;48.090;16.212;2024-03-08T14:15:31;18.33;;;13.53;;
15673;SDS011;7937;48.090;16.212;2024-03-08T14:18:33;18.27;;;13.90;;
15673;SDS011;7937;48.090;16.212;2024-03-08T14:21:36;20.77;;;14.23;;
15673;SDS011;7937;48.090;16.212;2024-03-08T14:24:41;23.97;;;14.60;;
15673;SDS011;7937;48.090;16.212;2024-03-08T14:27:44;23.57;;;14.63;;
15673;SDS011;7937;48.090;16.212;2024-03-08T14:30:47;18.90;;;13.63;;
15673;SDS011;7937;48.090;16.212;2024-03-08T14:33:49;19.00;;;12.77;;
15673;SDS011;7937;48.090;16.212;2024-03-08T14:36:51;22.37;;;14.77;;
15673;SDS011;7937;48.090;16.212;2024-03-08T14:39:53;19.40;;;13.67;;
15673;SDS011;7937;48.090;16.212;2024-03-08T14:42:56;19.40;;;12.67;;
15673;SDS011;7937;48.090;16.212;2024-03-08T14:45:58;18.53;;;12.30;;
15673;SDS011;7937;48.090;16.212;2024-03-08T14:49:01;18.67;;;13.73;;
15673;SDS011;7937;48.090;16.212;2024-03-08T14:52:03;16.13;;;11.60;;
15673;SDS011;7937;48.090;16.212;2024-03-08T14:55:20;19.60;;;13.03;;
15673;SDS011;7937;48.090;16.212;2024-03-08T14:58:24;16.90;;;11.93;;
15673;SDS011;7937;48.090;16.212;2024-03-08T15:01:26;17.73;;;12.63;;
15673;SDS011;7937;48.090;16.212;2024-03-08T15:04:31;16.10;;;11.60;;
15673;SDS011;7937;48.090;16.212;2024-03-08T15:07:37;17.07;;;12.03;;
15673;SDS011;7937;48.090;16.212;2024-03-08T15:10:44;17.90;;;11.87;;
15673;SDS011;7937;48.090;16.212;2024-03-08T15:13:48;14.27;;;11.50;;
15673;SDS011;7937;48.090;16.212;2024-03-08T15:16:53;17.87;;;12.30;;
15673;SDS011;7937;48.090;16.212;2024-03-08T15:19:55;17.57;;;12.43;;
15673;SDS011;7937;48.090;16.212;2024-03-08T15:22:57;16.83;;;11.93;;
15673;SDS011;7937;48.090;16.212;2024-03-08T15:26:01;18.67;;;12.37;;
15673;SDS011;7937;48.090;16.212;2024-03-08T15:29:05;17.63;;;12.27;;
15673;SDS011;7937;48.090;16.212;2024-03-08T15:32:07;16.57;;;11.63;;
15673;SDS011;7937;48.090;16.212;2024-03-08T15:35:11;14.90;;;11.03;;
15673;SDS011;7937;48.090;16.212;2024-03-08T15:38:15;14.13;;;11.53;;
15673;SDS011;7937;48.090;16.212;2024-03-08T15:41:17;16.47;;;12.53;;
15673;SDS011;7937;48.090;16.212;2024-03-08T15:44:19;17.43;;;12.27;;
15673;SDS011;7937;48.090;16.212;2024-03-08T15:47:22;16.23;;;11.97;;
15673;SDS011;7937;48.090;16.212;2024-03-08T15:50:24;16.07;;;12.17;;
15673;SDS011;7937;48.090;16.212;2024-03-08T15:53:26;16.60;;;12.20;;
15673;SDS011;7937;48.090;16.212;2024-03-08T15:56:28;16.30;;;11.90;;
15673;SDS011;7937;48.090;16.212;2024-03-08T15:59:30;16.50;;;11.53;;
15673;SDS011;7937;48.090;16.212;2024-03-08T16:02:41;17.83;;;12.73;;
15673;SDS011;7937;48.090;16.212;2024-03-08T16:05:46;18.17;;;12.17;;
15673;SDS011;7937;48.090;16.212;2024-03-08T16:08:53;16.00;;;11.83;;
15673;SDS011;7937;48.090;16.212;2024-03-08T16:11:56;18.10;;;12.20;;
15673;SDS011;7937;48.090;16.212;2024-03-08T16:15:00;16.20;;;11.20;;
15673;SDS011;7937;48.090;16.212;2024-03-08T16:18:02;14.33;;;11.20;;
15673;SDS011;7937;48.090;16.212;2024-03-08T16:21:07;18.30;;;12.73;;
15673;SDS011;7937;48.090;16.212;2024-03-08T16:24:09;16.97;;;12.53;;
15673;SDS011;7937;48.090;16.212;2024-03-08T16:27:11;15.83;;;11.83;;
15673;SDS011;7937;48.090;16.212;2024-03-08T16:30:13;18.93;;;11.83;;
15673;SDS011;7937;48.090;16.212;2024-03-08T16:33:19;18.17;;;11.73;;
15673;SDS011;7937;48.090;16.212;2024-03-08T16:36:21;17.93;;;11.80;;
15673;SDS011;7937;48.090;16.212;2024-03-08T16:39:24;15.00;;;11.23;;
15673;SDS011;7937;48.090;16.212;2024-03-08T16:42:30;17.33;;;12.20;;
15673;SDS011;7937;48.090;16.212;2024-03-08T16:45:32;16.13;;;11.23;;
15673;SDS011;7937;48.090;16.212;2024-03-08T16:48:36;16.00;;;11.13;;
15673;SDS011;7937;48.090;16.212;2024-03-08T16:51:39;16.23;;;10.97;;
15673;SDS011;7937;48.090;16.212;2024-03-08T16:54:42;16.43;;;11.73;;
15673;SDS011;7937;48.090;16.212;2024-03-08T16:57:57;16.67;;;11.87;;
15673;SDS011;7937;48.090;16.212;2024-03-08T17:01:00;15.33;;;11.00;;
15673;SDS011;7937;48.090;16.212;2024-03-08T17:04:03;20.20;;;13.10;;
15673;SDS011;7937;48.090;16.212;2024-03-08T17:07:06;17.30;;;11.37;;
15673;SDS011;7937;48.090;16.212;2024-03-08T17:10:08;16.40;;;11.47;;
15673;SDS011;7937;48.090;16.212;2024-03-08T17:13:16;15.93;;;11.17;;
15673;SDS011;7937;48.090;16.212;2024-03-08T17:16:20;17.07;;;12.07;;
15673;SDS011;7937;48.090;16.212;2024-03-08T17:19:27;15.90;;;11.60;;
15673;SDS011;7937;48.090;16.212;2024-03-08T17:22:29;15.63;;;11.60;;
15673;SDS011;7937;48.090;16.212;2024-03-08T17:25:32;16.70;;;11.57;;
15673;SDS011;7937;48.090;16.212;2024-03-08T17:28:35;18.77;;;12.47;;
15673;SDS011;7937;48.090;16.212;2024-03-08T17:31:40;20.40;;;12.37;;
15673;SDS011;7937;48.090;16.212;2024-03-08T17:34:43;18.43;;;11.63;;
15673;SDS011;7937;48.090;16.212;2024-03-08T17:37:48;16.53;;;11.87;;
15673;SDS011;7937;48.090;16.212;2024-03-08T17:40:57;16.53;;;11.13;;
15673;SDS011;7937;48.090;16.212;2024-03-08T17:44:01;20.93;;;12.27;;
15673;SDS011;7937;48.090;16.212;2024-03-08T17:47:05;19.43;;;12.73;;
15673;SDS011;7937;48.090;16.212;2024-03-08T17:50:07;18.67;;;12.00;;
15673;SDS011;7937;48.090;16.212;2024-03-08T17:53:11;16.67;;;12.27;;
15673;SDS011;7937;48.090;16.212;2024-03-08T17:56:15;21.27;;;13.30;;
15673;SDS011;7937;48.090;16.212;2024-03-08T17:59:17;16.93;;;12.73;;